Time;durP1;ratioP1;P1;durP2;ratioP2;P2;SDS_P1;SDS_P2;PMS_P1;PMS_P2;Temp;Humidity;BMP_temperature;BMP_pressure;BME280_temperature;BME280_humidity;BME280_pressure;Samples;Min_cycle;Max_cycle;Signal;HPM_P1;HPM_P2
2023/03/08 00:01:15;;;;;;;0.20;0.20;;;-2.60;99.90;;;;;;5053440;28;20037;-73
2023/03/08 00:03:41;;;;;;;0.20;0.20;;;-2.60;99.90;;;;;;5053420;28;20040;-73
2023/03/08 00:06:11;;;;;;;0.20;0.20;;;-2.70;99.90;;;;;;5053335;28;20041;-73
2023/03/08 00:08:36;;;;;;;0.20;0.20;;;-2.80;99.90;;;;;;5053183;28;20025;-73
2023/03/08 00:11:06;;;;;;;0.20;0.20;;;-2.80;99.90;;;;;;5053277;28;20071;-73
2023/03/08 00:13:32;;;;;;;0.20;0.20;;;-3.00;99.90;;;;;;5053529;28;20020;-73
2023/03/08 00:16:06;;;;;;;0.22;0.22;;;-3.00;99.90;;;;;;5053160;28;20021;-73
2023/03/08 00:18:33;;;;;;;0.20;0.20;;;-3.00;99.90;;;;;;5053174;28;20022;-73
2023/03/08 00:21:06;;;;;;;0.30;0.30;;;-3.00;99.90;;;;;;5053725;28;20366;-73
2023/03/08 00:23:32;;;;;;;0.22;0.22;;;-2.90;99.90;;;;;;5053715;28;20021;-73
2023/03/08 00:25:58;;;;;;;0.22;0.22;;;-2.90;99.90;;;;;;5053194;28;20516;-73
2023/03/08 00:28:23;;;;;;;0.25;0.25;;;-3.00;99.90;;;;;;5034683;28;20028;-73
2023/03/08 00:31:01;;;;;;;0.20;0.20;;;-2.90;99.90;;;;;;5053333;28;20458;-73
2023/03/08 00:33:28;;;;;;;0.10;0.10;;;-2.90;99.90;;;;;;5053274;28;20021;-73
2023/03/08 00:35:58;;;;;;;0.20;0.20;;;-3.00;99.90;;;;;;5052925;28;20025;-73
2023/03/08 00:38:24;;;;;;;0.20;0.20;;;-3.00;99.90;;;;;;5053553;28;20021;-73
2023/03/08 00:40:50;;;;;;;0.30;0.30;;;-3.00;99.90;;;;;;5053208;28;20100;-73
2023/03/08 00:43:15;;;;;;;0.20;0.20;;;-2.90;99.90;;;;;;5035072;28;20109;-73
2023/03/08 00:45:41;;;;;;;0.20;0.20;;;-3.00;99.90;;;;;;5052606;28;20043;-73
2023/03/08 00:48:06;;;;;;;0.20;0.20;;;-2.90;99.90;;;;;;5053189;28;20063;-73
2023/03/08 00:50:32;;;;;;;0.20;0.20;;;-2.80;99.90;;;;;;5052794;28;20108;-73
2023/03/08 00:52:58;;;;;;;0.20;0.20;;;-2.80;99.90;;;;;;5052827;28;20090;-73
2023/03/08 00:55:23;;;;;;;0.20;0.20;;;-2.80;99.90;;;;;;5034928;28;20048;-73
2023/03/08 00:57:49;;;;;;;0.20;0.20;;;-2.80;99.90;;;;;;5052807;28;20100;-73
2023/03/08 01:00:15;;;;;;;0.20;0.20;;;-2.80;99.90;;;;;;5053069;28;20029;-73
2023/03/08 01:02:40;;;;;;;0.20;0.20;;;-2.70;99.90;;;;;;5052660;28;20071;-73
2023/03/08 01:05:07;;;;;;;0.20;0.20;;;-2.70;99.90;;;;;;5053260;28;20025;-73
2023/03/08 01:07:33;;;;;;;0.20;0.20;;;-2.70;99.90;;;;;;5052649;28;20505;-73
2023/03/08 01:09:58;;;;;;;0.10;0.10;;;-2.70;99.90;;;;;;5053126;28;20063;-73
2023/03/08 01:12:24;;;;;;;0.20;0.20;;;-2.70;99.90;;;;;;5052629;28;20494;-73
2023/03/08 01:14:51;;;;;;;0.20;0.20;;;-2.70;99.90;;;;;;5052635;28;20104;-73
2023/03/08 01:17:17;;;;;;;0.20;0.20;;;-2.60;99.90;;;;;;5052528;28;20025;-73
2023/03/08 01:19:43;;;;;;;0.20;0.20;;;-2.50;99.90;;;;;;5052662;28;20033;-73
2023/03/08 01:22:09;;;;;;;0.10;0.10;;;-2.50;99.90;;;;;;5053113;28;20032;-73
2023/03/08 01:24:34;;;;;;;0.15;0.15;;;-2.60;99.90;;;;;;5053107;28;20044;-73
2023/03/08 01:27:00;;;;;;;0.20;0.20;;;-2.70;99.90;;;;;;5052435;28;20509;-73
2023/03/08 01:29:26;;;;;;;0.30;0.30;;;-2.70;99.90;;;;;;5052417;28;20028;-72
2023/03/08 01:31:52;;;;;;;0.10;0.10;;;-2.80;99.90;;;;;;5052747;28;20033;-73
2023/03/08 01:34:19;;;;;;;0.10;0.10;;;-2.80;99.90;;;;;;5052696;28;20025;-73
2023/03/08 01:36:44;;;;;;;0.20;0.20;;;-2.80;99.90;;;;;;5052633;28;20017;-73
2023/03/08 01:39:10;;;;;;;0.20;0.20;;;-2.80;99.90;;;;;;5052406;28;20112;-73
2023/03/08 01:41:35;;;;;;;0.20;0.20;;;-2.80;99.90;;;;;;5054752;28;20032;-73
2023/03/08 01:44:01;;;;;;;0.20;0.20;;;-2.70;99.90;;;;;;5056170;28;20091;-73
2023/03/08 01:46:35;;;;;;;0.10;0.10;;;-2.70;99.90;;;;;;5055912;28;20047;-73
2023/03/08 01:49:12;;;;;;;0.20;0.20;;;-2.70;99.90;;;;;;5056100;28;20501;-73
2023/03/08 01:51:58;;;;;;;0.20;0.20;;;-2.60;99.90;;;;;;5056122;28;20375;-73
2023/03/08 01:54:31;;;;;;;0.20;0.20;;;-2.60;99.90;;;;;;5056152;28;20078;-73
2023/03/08 01:57:14;;;;;;;0.25;0.25;;;-2.50;99.90;;;;;;5055749;28;20021;-73
2023/03/08 01:59:40;;;;;;;0.20;0.20;;;-2.40;99.90;;;;;;5055775;28;20120;-73
2023/03/08 02:02:06;;;;;;;0.17;0.17;;;-2.30;99.90;;;;;;5055982;28;20112;-73
2023/03/08 02:04:31;;;;;;;0.20;0.20;;;-2.20;99.90;;;;;;5037755;28;20028;-73
2023/03/08 02:06:57;;;;;;;0.20;0.20;;;-2.10;99.90;;;;;;5055524;28;20138;-73
2023/03/08 02:09:23;;;;;;;0.20;0.20;;;-2.00;99.90;;;;;;5055468;28;20029;-73
2023/03/08 02:11:49;;;;;;;0.13;0.13;;;-1.90;99.90;;;;;;5055759;28;20079;-73
2023/03/08 02:14:14;;;;;;;0.10;0.10;;;-1.90;99.90;;;;;;5055711;28;20025;-73
2023/03/08 02:16:40;;;;;;;0.10;0.10;;;-1.60;99.90;;;;;;5055311;28;20032;-73
2023/03/08 02:19:13;;;;;;;0.20;0.20;;;-1.40;99.90;;;;;;5055386;28;20033;-73
2023/03/08 02:21:38;;;;;;;0.20;0.20;;;-1.20;99.90;;;;;;5055605;28;20492;-73
2023/03/08 02:24:16;;;;;;;0.20;0.20;;;-1.00;99.90;;;;;;5055286;28;20029;-73
2023/03/08 02:26:42;;;;;;;0.17;0.17;;;-1.00;99.90;;;;;;5055157;28;20494;-73
2023/03/08 02:29:07;;;;;;;0.20;0.20;;;-0.90;99.90;;;;;;5055128;28;20441;-73
2023/03/08 02:31:33;;;;;;;0.20;0.20;;;-0.80;99.90;;;;;;5055680;28;20025;-73
2023/03/08 02:33:58;;;;;;;0.20;0.20;;;-0.80;99.90;;;;;;5055282;28;20025;-73
2023/03/08 02:36:24;;;;;;;0.10;0.10;;;-0.80;99.90;;;;;;5055497;28;20051;-73
2023/03/08 02:38:49;;;;;;;0.20;0.20;;;-0.80;99.90;;;;;;5037176;28;20031;-73
2023/03/08 02:41:15;;;;;;;0.20;0.20;;;-0.80;99.90;;;;;;5055196;28;20051;-73
2023/03/08 02:43:41;;;;;;;0.20;0.20;;;-0.80;99.90;;;;;;5054794;28;20021;-73
2023/03/08 02:46:06;;;;;;;0.20;0.20;;;-0.80;99.90;;;;;;5054666;28;20102;-73
2023/03/08 02:48:32;;;;;;;0.10;0.10;;;-0.70;99.90;;;;;;5055014;28;20087;-73
2023/03/08 02:50:57;;;;;;;0.10;0.10;;;-0.60;99.90;;;;;;5054980;28;20033;-73
2023/03/08 02:53:23;;;;;;;0.10;0.10;;;-0.50;99.90;;;;;;5054407;28;20021;-73
2023/03/08 02:55:48;;;;;;;0.20;0.20;;;-0.50;99.90;;;;;;5054866;28;20017;-73
2023/03/08 02:58:14;;;;;;;0.20;0.20;;;-0.60;99.90;;;;;;5054635;28;20025;-73
2023/03/08 03:00:40;;;;;;;0.13;0.13;;;-0.50;99.90;;;;;;5055120;28;20028;-73
2023/03/08 03:03:05;;;;;;;0.25;0.25;;;-0.60;99.90;;;;;;5054533;28;20541;-73
2023/03/08 03:05:31;;;;;;;0.20;0.20;;;-0.50;99.90;;;;;;5054383;28;20033;-73
2023/03/08 03:07:57;;;;;;;0.20;0.20;;;-0.60;99.90;;;;;;5054433;28;20099;-73
2023/03/08 03:10:23;;;;;;;0.20;0.20;;;-0.60;99.90;;;;;;5054277;28;20017;-73
2023/03/08 03:12:48;;;;;;;0.20;0.20;;;-0.50;99.90;;;;;;5054342;28;20070;-73
2023/03/08 03:15:14;;;;;;;0.20;0.20;;;-0.50;99.90;;;;;;5054560;28;20510;-73
2023/03/08 03:17:39;;;;;;;0.15;0.15;;;-0.50;99.90;;;;;;5054161;28;20029;-73
2023/03/08 03:20:07;;;;;;;0.20;0.20;;;-0.50;99.90;;;;;;5054162;28;20033;-73
2023/03/08 03:22:34;;;;;;;0.20;0.20;;;-0.50;99.90;;;;;;5054437;28;20032;-73
2023/03/08 03:24:59;;;;;;;0.20;0.20;;;-0.60;99.90;;;;;;5054377;28;20033;-73
2023/03/08 03:27:25;;;;;;;0.30;0.30;;;-0.70;99.90;;;;;;5054067;28;20032;-73
2023/03/08 03:29:50;;;;;;;0.20;0.20;;;-0.70;99.90;;;;;;5053927;28;20021;-73
2023/03/08 03:32:16;;;;;;;0.20;0.20;;;-0.70;99.90;;;;;;5053976;28;20021;-73
2023/03/08 03:34:42;;;;;;;0.20;0.20;;;-0.70;99.90;;;;;;5053899;28;20029;-73
2023/03/08 03:37:08;;;;;;;0.20;0.20;;;-0.80;99.90;;;;;;5053797;28;20040;-73
2023/03/08 03:39:37;;;;;;;0.20;0.20;;;-0.90;99.90;;;;;;5054110;28;20032;-73
2023/03/08 03:42:06;;;;;;;0.20;0.20;;;-1.00;99.90;;;;;;5054060;28;20032;-73
2023/03/08 03:44:32;;;;;;;0.10;0.10;;;-1.10;99.90;;;;;;5054080;28;20386;-73
2023/03/08 03:46:58;;;;;;;0.20;0.20;;;-1.40;99.90;;;;;;5053512;28;20055;-73
2023/03/08 03:49:24;;;;;;;0.20;0.20;;;-1.60;99.90;;;;;;5053876;28;20025;-73
2023/03/08 03:51:49;;;;;;;0.20;0.20;;;-1.90;99.90;;;;;;5053846;28;20482;-73
2023/03/08 03:54:15;;;;;;;0.15;0.15;;;-2.10;99.90;;;;;;5053606;28;20025;-73
2023/03/08 03:56:40;;;;;;;0.20;0.20;;;-2.30;99.90;;;;;;5053589;28;20028;-73
2023/03/08 03:59:06;;;;;;;0.20;0.20;;;-2.40;99.90;;;;;;5053532;28;20028;-73
2023/03/08 04:01:31;;;;;;;0.20;0.20;;;-2.60;99.90;;;;;;5053728;28;20470;-73
2023/03/08 04:03:58;;;;;;;0.20;0.20;;;-2.80;99.90;;;;;;5052731;28;20033;-73
2023/03/08 04:06:31;;;;;;;0.20;0.20;;;-3.00;99.90;;;;;;5035476;28;20033;-73
2023/03/08 04:09:06;;;;;;;0.20;0.20;;;-3.20;99.90;;;;;;5053301;28;20032;-73
2023/03/08 04:11:35;;;;;;;0.20;0.20;;;-3.40;99.90;;;;;;5036094;28;20040;-73
2023/03/08 04:14:01;;;;;;;0.15;0.15;;;-3.40;99.90;;;;;;5053558;28;20028;-73
2023/03/08 04:16:35;;;;;;;0.20;0.20;;;-3.40;99.90;;;;;;5053150;28;20025;-73
2023/03/08 04:19:04;;;;;;;0.20;0.20;;;-3.40;99.90;;;;;;5053222;28;20025;-73
2023/03/08 04:21:30;;;;;;;0.20;0.20;;;-3.40;99.90;;;;;;5053148;28;20021;-73
2023/03/08 04:23:56;;;;;;;0.20;0.20;;;-3.40;99.90;;;;;;5053123;28;20501;-73
2023/03/08 04:26:23;;;;;;;0.20;0.20;;;-3.50;99.90;;;;;;5053037;28;20027;-73
2023/03/08 04:28:48;;;;;;;0.20;0.20;;;-3.60;99.90;;;;;;5035111;28;20028;-73
2023/03/08 04:31:26;;;;;;;0.20;0.20;;;-3.80;99.90;;;;;;5035234;28;20067;-73
2023/03/08 04:33:52;;;;;;;0.20;0.20;;;-3.90;99.90;;;;;;5053348;28;20025;-73
2023/03/08 04:36:18;;;;;;;0.20;0.20;;;-3.90;99.90;;;;;;5052951;28;20027;-72
2023/03/08 04:38:45;;;;;;;0.15;0.15;;;-4.00;99.90;;;;;;5052977;28;20031;-73
2023/03/08 04:41:11;;;;;;;0.28;0.28;;;-4.10;99.90;;;;;;5052959;28;20021;-73
2023/03/08 04:43:38;;;;;;;0.30;0.30;;;-4.20;99.90;;;;;;5052928;28;20100;-73
2023/03/08 04:46:05;;;;;;;0.10;0.10;;;-4.40;99.90;;;;;;5035097;28;20424;-73
2023/03/08 04:48:31;;;;;;;0.20;0.20;;;-4.50;99.90;;;;;;5052799;28;20025;-73
2023/03/08 04:50:59;;;;;;;0.22;0.22;;;-4.50;99.90;;;;;;5052882;28;20094;-73
2023/03/08 04:53:26;;;;;;;0.20;0.20;;;-4.50;99.90;;;;;;5052839;28;20085;-73
2023/03/08 04:55:52;;;;;;;0.20;0.20;;;-4.50;99.90;;;;;;5052970;28;20032;-73
2023/03/08 04:58:18;;;;;;;0.30;0.30;;;-4.50;99.90;;;;;;5053095;28;20025;-73
2023/03/08 05:00:44;;;;;;;0.20;0.20;;;-4.40;99.90;;;;;;5052739;28;20036;-73
2023/03/08 05:03:10;;;;;;;0.13;0.13;;;-4.30;99.90;;;;;;5052771;28;20033;-73
2023/03/08 05:05:35;;;;;;;0.20;0.20;;;-4.30;99.90;;;;;;5052965;28;20075;-73
2023/03/08 05:08:04;;;;;;;0.20;0.20;;;-4.40;99.90;;;;;;5053253;28;20025;-73
2023/03/08 05:10:33;;;;;;;0.20;0.20;;;-4.60;99.90;;;;;;5052605;28;20025;-73
2023/03/08 05:12:58;;;;;;;0.15;0.15;;;-4.80;99.90;;;;;;5035219;28;20033;-73
2023/03/08 05:15:24;;;;;;;0.20;0.20;;;-5.20;99.90;;;;;;5054491;28;20161;-73
2023/03/08 05:17:50;;;;;;;0.20;0.20;;;-5.50;99.90;;;;;;5056746;28;20082;-73
2023/03/08 05:20:16;;;;;;;0.20;0.20;;;-5.60;99.90;;;;;;5056464;28;20099;-73
2023/03/08 05:22:42;;;;;;;0.25;0.25;;;-5.60;99.90;;;;;;5056710;28;20461;-73
2023/03/08 05:25:09;;;;;;;0.30;0.30;;;-5.70;99.90;;;;;;5056406;28;20176;-73
2023/03/08 05:27:34;;;;;;;0.20;0.20;;;-5.70;99.90;;;;;;5056402;28;20025;-73
2023/03/08 05:30:00;;;;;;;0.20;0.20;;;-5.80;99.90;;;;;;5056209;28;20478;-73
2023/03/08 05:32:25;;;;;;;0.20;0.20;;;-5.90;99.90;;;;;;5038380;28;20505;-73
2023/03/08 05:34:52;;;;;;;0.20;0.20;;;-5.90;99.90;;;;;;5056218;28;20105;-73
2023/03/08 05:37:17;;;;;;;0.20;0.20;;;-5.90;99.90;;;;;;5056164;28;20057;-73
2023/03/08 05:39:43;;;;;;;0.20;0.20;;;-6.00;99.90;;;;;;5056157;28;20064;-73
2023/03/08 05:42:10;;;;;;;0.30;0.30;;;-6.00;99.90;;;;;;5056113;28;20025;-73
2023/03/08 05:44:36;;;;;;;0.20;0.20;;;-5.90;99.90;;;;;;5056048;28;20100;-73
2023/03/08 05:47:02;;;;;;;0.10;0.10;;;-5.90;99.90;;;;;;5055842;28;20129;-73
2023/03/08 05:49:28;;;;;;;0.20;0.20;;;-5.90;99.90;;;;;;5055841;28;20044;-73
2023/03/08 05:51:53;;;;;;;0.20;0.20;;;-5.90;99.90;;;;;;5055907;28;20048;-73
2023/03/08 05:54:19;;;;;;;0.22;0.22;;;-5.90;99.90;;;;;;5056397;28;20031;-73
2023/03/08 05:56:45;;;;;;;0.20;0.20;;;-5.90;99.90;;;;;;5056011;28;20029;-73
2023/03/08 05:59:10;;;;;;;0.20;0.20;;;-5.80;99.90;;;;;;5055862;28;20036;-73
2023/03/08 06:01:36;;;;;;;0.20;0.20;;;-5.90;99.90;;;;;;5056001;28;20029;-73
2023/03/08 06:04:01;;;;;;;0.20;0.20;;;-5.90;99.90;;;;;;5055943;28;20021;-73
2023/03/08 06:06:27;;;;;;;0.20;0.20;;;-6.00;99.90;;;;;;5055570;28;20567;-73
2023/03/08 06:08:55;;;;;;;0.20;0.20;;;-6.10;99.90;;;;;;5056065;28;20462;-73
2023/03/08 06:11:20;;;;;;;0.17;0.17;;;-6.20;99.90;;;;;;5055537;28;20025;-73
2023/03/08 06:13:46;;;;;;;0.30;0.30;;;-6.30;99.90;;;;;;5055676;28;20467;-73
2023/03/08 06:16:11;;;;;;;0.20;0.20;;;-6.40;99.90;;;;;;5055626;28;20025;-73
2023/03/08 06:18:38;;;;;;;0.30;0.30;;;-6.40;99.90;;;;;;5037511;28;20051;-73
2023/03/08 06:21:12;;;;;;;0.30;0.30;;;-6.40;99.90;;;;;;5055327;28;20100;-73
2023/03/08 06:23:38;;;;;;;0.20;0.20;;;-6.40;99.90;;;;;;5055341;28;20017;-73
2023/03/08 06:26:05;;;;;;;0.20;0.20;;;-6.30;99.90;;;;;;5054903;28;20489;-73
2023/03/08 06:28:31;;;;;;;0.10;0.10;;;-6.30;99.90;;;;;;5054977;28;20123;-73
2023/03/08 06:30:57;;;;;;;0.20;0.20;;;-6.30;99.90;;;;;;5037332;28;20017;-73
2023/03/08 06:33:26;;;;;;;0.20;0.20;;;-6.20;99.90;;;;;;5055140;28;20029;-73
2023/03/08 06:36:17;;;;;;;0.22;0.22;;;-6.10;99.90;;;;;;5054989;28;20021;-73
2023/03/08 06:38:42;;;;;;;0.20;0.20;;;-6.00;99.90;;;;;;5050368;28;20055;-73
2023/03/08 06:41:10;;;;;;;0.20;0.20;;;-5.90;99.90;;;;;;5054972;28;20540;-73
2023/03/08 06:43:36;;;;;;;0.20;0.20;;;-5.70;99.90;;;;;;5054933;28;20371;-73
2023/03/08 06:46:06;;;;;;;0.13;0.13;;;-5.60;99.90;;;;;;5054611;28;20052;-73
2023/03/08 06:48:33;;;;;;;0.22;0.22;;;-5.40;99.90;;;;;;5036864;28;20036;-73
2023/03/08 06:50:59;;;;;;;0.20;0.20;;;-5.30;99.90;;;;;;5036893;28;20021;-73
2023/03/08 06:53:24;;;;;;;0.20;0.20;;;-5.20;99.90;;;;;;5036807;28;20455;-73
2023/03/08 06:55:50;;;;;;;0.30;0.30;;;-5.10;99.90;;;;;;5054854;28;20021;-73
2023/03/08 06:58:15;;;;;;;0.10;0.10;;;-5.00;99.90;;;;;;5054925;28;20021;-73
2023/03/08 07:00:41;;;;;;;0.20;0.20;;;-4.90;99.90;;;;;;5054625;28;20036;-73
2023/03/08 07:03:06;;;;;;;0.20;0.20;;;-5.00;99.90;;;;;;5054817;28;20044;-73
2023/03/08 07:05:32;;;;;;;0.17;0.17;;;-5.10;99.90;;;;;;5054430;28;20032;-73
2023/03/08 07:07:57;;;;;;;0.20;0.20;;;-5.00;99.90;;;;;;5054519;28;20029;-73
2023/03/08 07:10:23;;;;;;;0.20;0.20;;;-5.00;99.90;;;;;;5036475;28;20029;-73
2023/03/08 07:12:50;;;;;;;0.20;0.20;;;-4.90;99.90;;;;;;5054357;28;20017;-73
2023/03/08 07:15:19;;;;;;;0.10;0.10;;;-4.90;99.90;;;;;;5036425;28;20029;-73
2023/03/08 07:17:45;;;;;;;0.30;0.30;;;-4.80;99.90;;;;;;5054291;28;20029;-73
2023/03/08 07:20:12;;;;;;;0.25;0.25;;;-4.80;99.90;;;;;;5036412;28;20052;-73
2023/03/08 07:22:40;;;;;;;0.20;0.20;;;-4.90;99.90;;;;;;5054141;28;20035;-73
2023/03/08 07:25:07;;;;;;;0.30;0.30;;;-4.70;99.90;;;;;;5054151;28;20017;-73
2023/03/08 07:27:33;;;;;;;0.20;0.20;;;-4.60;99.90;;;;;;5054021;28;20124;-73
2023/03/08 07:29:58;;;;;;;0.20;0.20;;;-4.30;99.90;;;;;;5054256;28;20108;-73
2023/03/08 07:32:27;;;;;;;0.10;0.10;;;-4.20;99.90;;;;;;5054023;28;20021;-73
2023/03/08 07:34:53;;;;;;;0.20;0.20;;;-4.00;99.90;;;;;;5054234;28;20055;-73
2023/03/08 07:37:19;;;;;;;0.20;0.20;;;-3.70;99.90;;;;;;5053743;28;20028;-73
2023/03/08 07:39:44;;;;;;;0.20;0.20;;;-3.60;99.90;;;;;;5035080;28;20029;-73
2023/03/08 07:42:10;;;;;;;0.20;0.20;;;-3.30;99.90;;;;;;5053839;28;20477;-73
2023/03/08 07:44:38;;;;;;;0.30;0.30;;;-3.00;99.90;;;;;;5053818;28;20393;-73
2023/03/08 07:47:06;;;;;;;0.30;0.30;;;-2.70;99.90;;;;;;5053682;28;20040;-73
2023/03/08 07:49:32;;;;;;;0.20;0.20;;;-2.50;99.90;;;;;;5053915;28;20025;-73
2023/03/08 07:51:58;;;;;;;0.20;0.20;;;-2.20;99.90;;;;;;5053634;28;20398;-73
2023/03/08 07:54:24;;;;;;;0.20;0.20;;;-2.00;99.90;;;;;;5053618;28;20474;-73
2023/03/08 07:56:51;;;;;;;0.20;0.20;;;-1.80;99.90;;;;;;5053894;28;20021;-73
2023/03/08 07:59:17;;;;;;;0.30;0.30;;;-1.60;99.90;;;;;;5053526;28;20025;-73
2023/03/08 08:01:42;;;;;;;0.10;0.10;;;-1.40;99.90;;;;;;5035628;28;20155;-73
2023/03/08 08:04:08;;;;;;;0.30;0.30;;;-1.20;99.90;;;;;;5053424;28;20060;-73
2023/03/08 08:06:35;;;;;;;0.20;0.20;;;-1.20;99.90;;;;;;5053477;28;20090;-73
2023/03/08 08:09:01;;;;;;;0.20;0.20;;;-1.30;99.90;;;;;;5035475;28;20104;-73
2023/03/08 08:11:27;;;;;;;0.20;0.20;;;-1.20;99.90;;;;;;5053308;28;20482;-73
2023/03/08 08:13:53;;;;;;;0.30;0.30;;;-1.20;99.90;;;;;;5053311;28;20409;-73
2023/03/08 08:16:19;;;;;;;0.20;0.20;;;-1.00;99.90;;;;;;5035332;28;20482;-73
2023/03/08 08:18:44;;;;;;;0.20;0.20;;;-0.70;99.90;;;;;;5053226;28;20064;-73
2023/03/08 08:21:12;;;;;;;0.30;0.30;;;-0.60;99.90;;;;;;5053453;28;20086;-73
2023/03/08 08:23:38;;;;;;;0.20;0.20;;;-0.50;99.90;;;;;;5053360;28;20029;-73
2023/03/08 08:26:11;;;;;;;0.17;0.17;;;-0.40;99.90;;;;;;5053071;28;20019;-72
2023/03/08 08:28:38;;;;;;;0.10;0.10;;;-0.70;99.90;;;;;;5053357;28;20029;-72
2023/03/08 08:31:11;;;;;;;0.30;0.30;;;-0.60;99.90;;;;;;5053062;28;20478;-72
2023/03/08 08:33:36;;;;;;;0.20;0.20;;;-0.60;99.90;;;;;;5053213;28;20474;-72
2023/03/08 08:36:05;;;;;;;0.20;0.20;;;-0.60;99.90;;;;;;5053159;28;20032;-72
2023/03/08 08:38:31;;;;;;;0.20;0.20;;;-0.70;99.90;;;;;;5053004;28;20436;-72
2023/03/08 08:41:01;;;;;;;0.20;0.20;;;-0.80;99.90;;;;;;5052976;28;20108;-72
2023/03/08 08:43:27;;;;;;;0.20;0.20;;;-0.70;99.90;;;;;;5053101;28;20029;-72
2023/03/08 08:45:56;;;;;;;0.20;0.20;;;-0.80;99.90;;;;;;5052726;28;20036;-72
2023/03/08 08:48:22;;;;;;;0.20;0.20;;;-0.80;99.90;;;;;;5053197;28;20047;-72
2023/03/08 08:50:48;;;;;;;0.10;0.10;;;-0.60;99.90;;;;;;5055731;28;20042;-72
2023/03/08 08:53:14;;;;;;;0.20;0.20;;;-0.50;99.90;;;;;;5057258;28;20025;-72
2023/03/08 08:55:39;;;;;;;0.20;0.20;;;-0.30;99.90;;;;;;5056886;28;20356;-73
2023/03/08 08:58:06;;;;;;;0.10;0.10;;;-0.20;99.90;;;;;;5056934;28;20033;-73
2023/03/08 09:00:33;;;;;;;0.20;0.20;;;-0.30;99.90;;;;;;5056967;28;20031;-72
2023/03/08 09:02:59;;;;;;;0.30;0.30;;;-0.10;99.90;;;;;;5057075;28;20075;-72
2023/03/08 09:05:25;;;;;;;0.20;0.20;;;0.10;99.90;;;;;;5056706;28;20028;-72
2023/03/08 09:07:58;;;;;;;0.20;0.20;;;0.30;99.90;;;;;;5056950;28;20394;-72
2023/03/08 09:10:28;;;;;;;0.20;0.20;;;0.40;99.90;;;;;;5056637;28;20021;-72
2023/03/08 09:12:54;;;;;;;0.20;0.20;;;0.50;99.90;;;;;;5057241;28;20039;-72
2023/03/08 09:15:21;;;;;;;0.10;0.10;;;0.50;99.90;;;;;;5056546;28;20104;-72
2023/03/08 09:17:48;;;;;;;0.13;0.13;;;0.60;99.90;;;;;;5038639;28;20105;-72
2023/03/08 09:20:14;;;;;;;0.20;0.20;;;0.60;99.90;;;;;;5056774;28;20418;-72
2023/03/08 09:22:39;;;;;;;0.20;0.20;;;0.70;99.90;;;;;;5057042;28;20025;-72
2023/03/08 09:25:06;;;;;;;0.20;0.20;;;0.90;99.90;;;;;;5056429;28;20021;-72
2023/03/08 09:27:32;;;;;;;0.20;0.20;;;1.10;99.90;;;;;;5056261;28;20035;-72
2023/03/08 09:29:58;;;;;;;0.20;0.20;;;1.30;99.90;;;;;;5056808;28;20080;-72
2023/03/08 09:32:24;;;;;;;0.20;0.20;;;1.60;99.90;;;;;;5056580;28;20032;-72
2023/03/08 09:34:50;;;;;;;0.20;0.20;;;1.80;99.90;;;;;;5056250;28;20452;-72
2023/03/08 09:37:17;;;;;;;0.20;0.20;;;2.10;99.90;;;;;;5056378;28;20055;-72
2023/03/08 09:39:44;;;;;;;0.20;0.20;;;2.40;99.90;;;;;;5056148;28;20105;-72
2023/03/08 09:42:21;;;;;;;0.17;0.17;;;2.60;99.90;;;;;;5056114;28;20108;-72
2023/03/08 09:45:05;;;;;;;0.20;0.20;;;2.80;99.90;;;;;;5056118;28;20028;-72
2023/03/08 09:47:43;;;;;;;0.20;0.20;;;3.00;99.90;;;;;;5055859;28;20494;-72
2023/03/08 09:50:11;;;;;;;0.20;0.20;;;3.20;99.90;;;;;;5056213;28;20036;-72
2023/03/08 09:52:53;;;;;;;0.22;0.22;;;3.40;99.90;;;;;;5056324;28;20021;-72
2023/03/08 09:55:29;;;;;;;0.20;0.20;;;3.40;99.90;;;;;;5056116;28;20021;-72
2023/03/08 09:57:56;;;;;;;0.10;0.10;;;3.50;99.90;;;;;;5037937;28;20021;-72
2023/03/08 10:00:31;;;;;;;0.20;0.20;;;3.70;99.90;;;;;;5056048;28;20040;-72
2023/03/08 10:03:15;;;;;;;0.20;0.20;;;3.90;99.90;;;;;;5054714;28;20532;-72
2023/03/08 10:06:00;;;;;;;0.10;0.10;;;4.20;99.90;;;;;;5055938;28;20032;-72
2023/03/08 10:08:34;;;;;;;0.20;0.20;;;4.20;99.90;;;;;;5037795;28;20065;-72
2023/03/08 10:11:12;;;;;;;0.10;0.10;;;4.40;99.90;;;;;;5055533;28;20136;-72
2023/03/08 10:13:52;;;;;;;0.30;0.30;;;4.70;99.90;;;;;;5055865;28;20104;-72
2023/03/08 10:16:23;;;;;;;0.20;0.20;;;4.80;99.90;;;;;;5055760;28;20025;-72
2023/03/08 10:19:11;;;;;;;0.20;0.20;;;4.90;99.90;;;;;;5055976;28;20111;-72
2023/03/08 10:21:39;;;;;;;0.10;0.10;;;5.00;99.90;;;;;;5037538;28;20025;-72
2023/03/08 10:24:15;;;;;;;0.20;0.20;;;5.20;99.90;;;;;;5055610;28;20070;-72
2023/03/08 10:26:42;;;;;;;0.20;0.20;;;5.40;99.90;;;;;;5055530;28;20407;-72
2023/03/08 10:29:11;;;;;;;0.20;0.20;;;5.40;99.90;;;;;;5055115;28;20063;-72
2023/03/08 10:31:37;;;;;;;0.20;0.20;;;5.50;99.90;;;;;;5055175;28;20017;-72
2023/03/08 10:34:18;;;;;;;0.20;0.20;;;5.20;99.90;;;;;;5055146;28;20386;-72
2023/03/08 10:36:55;;;;;;;0.20;0.20;;;5.10;99.90;;;;;;5055164;28;20028;-72
2023/03/08 10:39:21;;;;;;;0.17;0.17;;;5.20;99.90;;;;;;5055177;28;20061;-72
2023/03/08 10:41:50;;;;;;;0.20;0.20;;;5.00;99.90;;;;;;5055268;28;20051;-72
2023/03/08 10:44:42;;;;;;;0.20;0.20;;;5.00;99.90;;;;;;5037074;28;20103;-72
2023/03/08 10:47:32;;;;;;;0.20;0.20;;;5.20;99.90;;;;;;5054734;28;20071;-72
2023/03/08 10:50:20;;;;;;;0.10;0.10;;;5.30;99.90;;;;;;5054808;28;20028;-72
2023/03/08 10:52:47;;;;;;;0.20;0.20;;;5.40;99.90;;;;;;5055111;28;20024;-72
2023/03/08 10:55:25;;;;;;;0.20;0.20;;;5.70;99.90;;;;;;5054732;28;20028;-72
2023/03/08 10:57:58;;;;;;;0.17;0.17;;;5.90;99.90;;;;;;5055004;28;20033;-72
2023/03/08 11:00:34;;;;;;;0.20;0.20;;;6.10;99.90;;;;;;5054939;28;20039;-72
2023/03/08 11:03:12;;;;;;;0.20;0.20;;;6.10;99.90;;;;;;5054907;28;20025;-72
2023/03/08 11:05:37;;;;;;;0.20;0.20;;;6.00;99.90;;;;;;5054442;28;20040;-72
2023/03/08 11:08:14;;;;;;;0.10;0.10;;;5.80;99.90;;;;;;5054497;28;20032;-72
2023/03/08 11:10:40;;;;;;;0.15;0.15;;;5.80;99.90;;;;;;5054652;28;20037;-72
2023/03/08 11:13:25;;;;;;;0.15;0.15;;;5.80;99.90;;;;;;5036298;28;20024;-72
2023/03/08 11:16:07;;;;;;;0.10;0.10;;;6.00;99.90;;;;;;5054601;28;20017;-72
2023/03/08 11:18:54;;;;;;;0.10;0.10;;;5.90;99.90;;;;;;5054622;28;20033;-72
2023/03/08 11:21:47;;;;;;;0.10;0.10;;;6.30;99.90;;;;;;5054283;28;20060;-72
2023/03/08 11:24:25;;;;;;;0.20;0.20;;;6.30;99.90;;;;;;5054221;28;20032;-72
2023/03/08 11:27:04;;;;;;;0.20;0.20;;;6.40;99.90;;;;;;5054073;28;20033;-72
2023/03/08 11:30:05;;;;;;;0.10;0.10;;;6.70;99.90;;;;;;5054318;28;20025;-72
2023/03/08 11:32:49;;;;;;;0.20;0.20;;;6.90;99.90;;;;;;5051804;28;20501;-72
2023/03/08 11:35:36;;;;;;;0.20;0.20;;;7.30;99.90;;;;;;5054034;28;20021;-72
2023/03/08 11:38:18;;;;;;;0.10;0.10;;;7.10;99.90;;;;;;5054222;28;20079;-72
2023/03/08 11:41:11;;;;;;;0.10;0.10;;;7.40;99.90;;;;;;5054174;28;20031;-72
2023/03/08 11:43:59;;;;;;;0.20;0.20;;;7.70;99.90;;;;;;5054417;28;20064;-72
2023/03/08 11:47:02;;;;;;;0.20;0.20;;;7.70;99.90;;;;;;5053929;28;20474;-72
2023/03/08 11:50:07;;;;;;;0.17;0.17;;;7.80;99.90;;;;;;5053902;28;20110;-72
2023/03/08 11:52:51;;;;;;;0.20;0.20;;;7.70;99.90;;;;;;5053991;28;20032;-72
2023/03/08 11:55:32;;;;;;;0.20;0.20;;;8.20;99.90;;;;;;5053694;28;20032;-72
2023/03/08 11:58:10;;;;;;;0.20;0.20;;;8.20;99.90;;;;;;5053910;28;20100;-72
2023/03/08 12:00:47;;;;;;;0.20;0.20;;;8.00;99.90;;;;;;5053844;28;20094;-72
2023/03/08 12:03:17;;;;;;;0.20;0.20;;;7.80;99.90;;;;;;5053521;28;20371;-72
2023/03/08 12:05:49;;;;;;;0.20;0.20;;;8.30;99.90;;;;;;5053359;28;20044;-72
2023/03/08 12:08:18;;;;;;;0.20;0.20;;;8.70;99.90;;;;;;5053478;28;20078;-72
2023/03/08 12:11:02;;;;;;;0.13;0.13;;;9.40;99.90;;;;;;5053301;28;20021;-72
2023/03/08 12:13:32;;;;;;;;;;;10.00;99.90;;;;;;5054031;28;20028;-72
2023/03/08 12:16:41;;;;;;;0.20;0.20;;;10.20;99.90;;;;;;5053277;28;19915;-72
2023/03/08 12:19:27;;;;;;;0.20;0.20;;;10.40;99.90;;;;;;5053241;28;20033;-72
2023/03/08 12:22:03;;;;;;;0.20;0.20;;;10.10;99.90;;;;;;5053443;28;20029;-72
2023/03/08 12:24:45;;;;;;;0.20;0.20;;;9.80;99.90;;;;;;5052901;28;20067;-72
2023/03/08 12:27:26;;;;;;;0.20;0.20;;;9.80;99.90;;;;;;5053077;28;20056;-72
2023/03/08 12:30:04;;;;;;;0.20;0.20;;;10.30;99.90;;;;;;5053345;28;20478;-72
2023/03/08 12:32:31;;;;;;;0.13;0.13;;;10.90;99.90;;;;;;5053134;28;20033;-72
2023/03/08 12:35:04;;;;;;;0.20;0.20;;;10.70;99.90;;;;;;5053062;28;20427;-73
2023/03/08 12:37:30;;;;;;;0.20;0.20;;;11.20;99.90;;;;;;5053001;28;20104;-73
2023/03/08 12:40:06;;;;;;;0.20;0.20;;;11.80;99.90;;;;;;5053283;28;20048;-73
2023/03/08 12:42:35;;;;;;;0.20;0.20;;;12.20;99.90;;;;;;5053291;28;20028;-73
2023/03/08 12:45:08;;;;;;;0.20;0.20;;;12.50;99.90;;;;;;5053223;28;20029;-73
2023/03/08 12:47:34;;;;;;;0.20;0.20;;;12.70;99.90;;;;;;5052706;28;20125;-73
2023/03/08 12:50:09;;;;;;;0.10;0.10;;;13.00;99.90;;;;;;5052869;28;20108;-73
2023/03/08 12:52:35;;;;;;;0.10;0.10;;;13.40;99.90;;;;;;5053199;28;20029;-73
2023/03/08 12:55:04;;;;;;;0.17;0.17;;;13.90;99.90;;;;;;5053155;28;20025;-73
2023/03/08 12:57:41;;;;;;;0.10;0.10;;;14.20;99.90;;;;;;5052773;28;20394;-73
2023/03/08 13:00:24;;;;;;;0.17;0.17;;;14.90;99.90;;;;;;5052859;28;20032;-73
2023/03/08 13:03:03;;;;;;;0.10;0.10;;;15.00;99.90;;;;;;5053094;28;20025;-73